sensor_id;sensor_type;location;lat;lon;timestamp;temperature;humidity
20985;DHT22;10651;47.552;7.606;2022-07-01T00:01:58;17.00;99.90
20985;DHT22;10651;47.552;7.606;2022-07-01T00:04:24;17.00;99.90
20985;DHT22;10651;47.552;7.606;2022-07-01T00:06:56;17.10;99.90
20985;DHT22;10651;47.552;7.606;2022-07-01T00:09:22;17.10;99.90
20985;DHT22;10651;47.552;7.606;2022-07-01T00:11:48;17.10;99.90
20985;DHT22;10651;47.552;7.606;2022-07-01T00:14:14;17.00;99.90
20985;DHT22;10651;47.552;7.606;2022-07-01T00:16:40;17.00;99.90
20985;DHT22;10651;47.552;7.606;2022-07-01T00:19:06;17.00;99.90
20985;DHT22;10651;47.552;7.606;2022-07-01T00:21:32;17.00;99.90
20985;DHT22;10651;47.552;7.606;2022-07-01T00:23:58;17.00;99.90
20985;DHT22;10651;47.552;7.606;2022-07-01T00:26:24;17.00;99.90
20985;DHT22;10651;47.552;7.606;2022-07-01T00:28:50;16.70;99.90
20985;DHT22;10651;47.552;7.606;2022-07-01T00:31:15;16.60;99.90
20985;DHT22;10651;47.552;7.606;2022-07-01T00:33:41;16.70;99.90
20985;DHT22;10651;47.552;7.606;2022-07-01T00:36:07;16.70;99.90
20985;DHT22;10651;47.552;7.606;2022-07-01T00:38:32;16.60;99.90
20985;DHT22;10651;47.552;7.606;2022-07-01T00:40:58;16.70;99.90
20985;DHT22;10651;47.552;7.606;2022-07-01T00:43:24;16.70;99.90
20985;DHT22;10651;47.552;7.606;2022-07-01T00:45:51;16.70;99.90
20985;DHT22;10651;47.552;7.606;2022-07-01T00:48:18;16.70;99.90
20985;DHT22;10651;47.552;7.606;2022-07-01T00:50:45;16.70;99.90
20985;DHT22;10651;47.552;7.606;2022-07-01T00:53:12;16.60;99.90
20985;DHT22;10651;47.552;7.606;2022-07-01T00:55:38;16.60;99.90
20985;DHT22;10651;47.552;7.606;2022-07-01T00:58:04;16.50;99.90
20985;DHT22;10651;47.552;7.606;2022-07-01T01:00:29;16.40;99.90
20985;DHT22;10651;47.552;7.606;2022-07-01T01:02:55;16.50;99.90
20985;DHT22;10651;47.552;7.606;2022-07-01T01:05:21;16.50;99.90
20985;DHT22;10651;47.552;7.606;2022-07-01T01:07:50;16.60;99.90
20985;DHT22;10651;47.552;7.606;2022-07-01T01:10:17;16.60;99.90
20985;DHT22;10651;47.552;7.606;2022-07-01T01:12:43;16.60;99.90
20985;DHT22;10651;47.552;7.606;2022-07-01T01:15:09;16.60;99.90
20985;DHT22;10651;47.552;7.606;2022-07-01T01:17:36;16.60;99.90
20985;DHT22;10651;47.552;7.606;2022-07-01T01:20:03;16.60;99.90
20985;DHT22;10651;47.552;7.606;2022-07-01T01:22:28;16.50;99.90
20985;DHT22;10651;47.552;7.606;2022-07-01T01:24:54;16.50;99.90
20985;DHT22;10651;47.552;7.606;2022-07-01T01:27:20;16.50;99.90
20985;DHT22;10651;47.552;7.606;2022-07-01T01:29:46;16.40;99.90
20985;DHT22;10651;47.552;7.606;2022-07-01T01:32:12;16.40;99.90
20985;DHT22;10651;47.552;7.606;2022-07-01T01:34:38;16.40;99.90
20985;DHT22;10651;47.552;7.606;2022-07-01T01:37:05;16.40;99.90
20985;DHT22;10651;47.552;7.606;2022-07-01T01:39:31;16.10;99.90
20985;DHT22;10651;47.552;7.606;2022-07-01T01:41:57;16.30;99.90
20985;DHT22;10651;47.552;7.606;2022-07-01T01:44:22;16.30;99.90
20985;DHT22;10651;47.552;7.606;2022-07-01T01:46:48;16.30;99.90
20985;DHT22;10651;47.552;7.606;2022-07-01T01:49:14;16.20;99.90
20985;DHT22;10651;47.552;7.606;2022-07-01T01:51:40;16.20;99.90
20985;DHT22;10651;47.552;7.606;2022-07-01T01:54:06;16.30;99.90
20985;DHT22;10651;47.552;7.606;2022-07-01T01:56:32;16.20;99.90
20985;DHT22;10651;47.552;7.606;2022-07-01T01:58:58;16.20;99.90
20985;DHT22;10651;47.552;7.606;2022-07-01T02:01:24;16.20;99.90
20985;DHT22;10651;47.552;7.606;2022-07-01T02:03:51;16.20;99.90
20985;DHT22;10651;47.552;7.606;2022-07-01T02:06:17;16.20;99.90
20985;DHT22;10651;47.552;7.606;2022-07-01T02:08:43;16.30;99.90
20985;DHT22;10651;47.552;7.606;2022-07-01T02:11:09;16.20;99.90
20985;DHT22;10651;47.552;7.606;2022-07-01T02:13:35;16.20;99.90
20985;DHT22;10651;47.552;7.606;2022-07-01T02:16:02;16.10;99.90
20985;DHT22;10651;47.552;7.606;2022-07-01T02:18:27;16.20;99.90
20985;DHT22;10651;47.552;7.606;2022-07-01T02:20:53;16.10;99.90
20985;DHT22;10651;47.552;7.606;2022-07-01T02:23:19;16.00;99.90
20985;DHT22;10651;47.552;7.606;2022-07-01T02:25:45;16.10;99.90
20985;DHT22;10651;47.552;7.606;2022-07-01T02:28:12;16.10;99.90
20985;DHT22;10651;47.552;7.606;2022-07-01T02:30:38;16.20;99.90
20985;DHT22;10651;47.552;7.606;2022-07-01T02:33:05;16.20;99.90
20985;DHT22;10651;47.552;7.606;2022-07-01T02:35:32;16.20;99.90
20985;DHT22;10651;47.552;7.606;2022-07-01T02:37:57;16.10;99.90
20985;DHT22;10651;47.552;7.606;2022-07-01T02:40:23;16.10;99.90
20985;DHT22;10651;47.552;7.606;2022-07-01T02:42:49;16.10;99.90
20985;DHT22;10651;47.552;7.606;2022-07-01T02:45:14;16.10;99.90
20985;DHT22;10651;47.552;7.606;2022-07-01T02:47:41;16.10;99.90
20985;DHT22;10651;47.552;7.606;2022-07-01T02:50:09;16.10;99.90
20985;DHT22;10651;47.552;7.606;2022-07-01T02:52:36;16.00;99.90
20985;DHT22;10651;47.552;7.606;2022-07-01T02:55:03;16.10;99.90
20985;DHT22;10651;47.552;7.606;2022-07-01T02:57:29;16.10;99.90
20985;DHT22;10651;47.552;7.606;2022-07-01T02:59:55;16.00;99.90
20985;DHT22;10651;47.552;7.606;2022-07-01T03:02:21;16.00;99.90
20985;DHT22;10651;47.552;7.606;2022-07-01T03:04:47;16.00;99.90
20985;DHT22;10651;47.552;7.606;2022-07-01T03:07:14;16.10;99.90
20985;DHT22;10651;47.552;7.606;2022-07-01T03:09:40;16.10;99.90
20985;DHT22;10651;47.552;7.606;2022-07-01T03:12:10;16.00;99.90
20985;DHT22;10651;47.552;7.606;2022-07-01T03:14:56;16.00;99.90
20985;DHT22;10651;47.552;7.606;2022-07-01T03:17:23;16.00;99.90
20985;DHT22;10651;47.552;7.606;2022-07-01T03:19:48;16.10;99.90
20985;DHT22;10651;47.552;7.606;2022-07-01T03:22:15;16.00;99.90
20985;DHT22;10651;47.552;7.606;2022-07-01T03:24:40;16.00;99.90
20985;DHT22;10651;47.552;7.606;2022-07-01T03:27:06;16.00;99.90
20985;DHT22;10651;47.552;7.606;2022-07-01T03:29:31;16.00;99.90
20985;DHT22;10651;47.552;7.606;2022-07-01T03:31:57;16.00;99.90
20985;DHT22;10651;47.552;7.606;2022-07-01T03:34:23;15.90;99.90
20985;DHT22;10651;47.552;7.606;2022-07-01T03:36:48;16.00;99.90
20985;DHT22;10651;47.552;7.606;2022-07-01T03:39:14;16.00;99.90
20985;DHT22;10651;47.552;7.606;2022-07-01T03:41:39;15.90;99.90
20985;DHT22;10651;47.552;7.606;2022-07-01T03:44:05;15.90;99.90
20985;DHT22;10651;47.552;7.606;2022-07-01T03:46:33;16.00;99.90
20985;DHT22;10651;47.552;7.606;2022-07-01T03:49:01;16.00;99.90
20985;DHT22;10651;47.552;7.606;2022-07-01T03:51:27;16.00;99.90
20985;DHT22;10651;47.552;7.606;2022-07-01T03:53:53;15.90;99.90
20985;DHT22;10651;47.552;7.606;2022-07-01T03:56:37;15.90;99.90
20985;DHT22;10651;47.552;7.606;2022-07-01T03:59:03;15.90;99.90
20985;DHT22;10651;47.552;7.606;2022-07-01T04:01:28;15.90;99.90
20985;DHT22;10651;47.552;7.606;2022-07-01T04:03:54;15.90;99.90
20985;DHT22;10651;47.552;7.606;2022-07-01T04:06:20;15.80;99.90
20985;DHT22;10651;47.552;7.606;2022-07-01T04:08:46;15.60;99.90
20985;DHT22;10651;47.552;7.606;2022-07-01T04:11:13;15.60;99.90
20985;DHT22;10651;47.552;7.606;2022-07-01T04:13:39;15.60;99.90
20985;DHT22;10651;47.552;7.606;2022-07-01T04:16:05;15.70;99.90
20985;DHT22;10651;47.552;7.606;2022-07-01T04:18:31;15.70;99.90
20985;DHT22;10651;47.552;7.606;2022-07-01T04:20:58;15.70;99.90
20985;DHT22;10651;47.552;7.606;2022-07-01T04:23:43;15.80;99.90
20985;DHT22;10651;47.552;7.606;2022-07-01T04:26:09;15.90;99.90
20985;DHT22;10651;47.552;7.606;2022-07-01T04:28:34;15.90;99.90
20985;DHT22;10651;47.552;7.606;2022-07-01T04:31:00;15.90;99.90
20985;DHT22;10651;47.552;7.606;2022-07-01T04:33:26;15.80;99.90
20985;DHT22;10651;47.552;7.606;2022-07-01T04:35:51;15.80;99.90
20985;DHT22;10651;47.552;7.606;2022-07-01T04:38:17;15.90;99.90
20985;DHT22;10651;47.552;7.606;2022-07-01T04:40:43;15.80;99.90
20985;DHT22;10651;47.552;7.606;2022-07-01T04:43:28;15.80;99.90
20985;DHT22;10651;47.552;7.606;2022-07-01T04:45:54;15.70;99.90
20985;DHT22;10651;47.552;7.606;2022-07-01T04:48:20;15.70;99.90
20985;DHT22;10651;47.552;7.606;2022-07-01T04:50:46;15.80;99.90
20985;DHT22;10651;47.552;7.606;2022-07-01T04:53:13;15.70;99.90
20985;DHT22;10651;47.552;7.606;2022-07-01T04:55:39;15.80;99.90
20985;DHT22;10651;47.552;7.606;2022-07-01T04:58:05;15.90;99.90
20985;DHT22;10651;47.552;7.606;2022-07-01T05:00:30;15.90;99.90
20985;DHT22;10651;47.552;7.606;2022-07-01T05:02:56;15.90;99.90
20985;DHT22;10651;47.552;7.606;2022-07-01T05:05:21;16.00;99.90
20985;DHT22;10651;47.552;7.606;2022-07-01T05:07:47;15.90;99.90
20985;DHT22;10651;47.552;7.606;2022-07-01T05:10:13;15.90;99.90
20985;DHT22;10651;47.552;7.606;2022-07-01T05:12:39;15.80;99.90
20985;DHT22;10651;47.552;7.606;2022-07-01T05:15:05;15.90;99.90
20985;DHT22;10651;47.552;7.606;2022-07-01T05:17:32;15.80;99.90
20985;DHT22;10651;47.552;7.606;2022-07-01T05:20:16;15.80;99.90
20985;DHT22;10651;47.552;7.606;2022-07-01T05:23:01;15.70;99.90
20985;DHT22;10651;47.552;7.606;2022-07-01T05:25:26;15.80;99.90
20985;DHT22;10651;47.552;7.606;2022-07-01T05:27:58;15.90;99.90
20985;DHT22;10651;47.552;7.606;2022-07-01T05:30:24;15.90;99.90
20985;DHT22;10651;47.552;7.606;2022-07-01T05:32:50;15.90;99.90
20985;DHT22;10651;47.552;7.606;2022-07-01T05:35:15;15.80;99.90
20985;DHT22;10651;47.552;7.606;2022-07-01T05:37:41;15.80;99.90
20985;DHT22;10651;47.552;7.606;2022-07-01T05:40:07;15.80;99.90
20985;DHT22;10651;47.552;7.606;2022-07-01T05:42:33;15.90;99.90
20985;DHT22;10651;47.552;7.606;2022-07-01T05:44:59;16.00;99.90
20985;DHT22;10651;47.552;7.606;2022-07-01T05:47:25;16.00;99.90
20985;DHT22;10651;47.552;7.606;2022-07-01T05:49:50;16.00;99.90
20985;DHT22;10651;47.552;7.606;2022-07-01T05:52:16;16.00;99.90
20985;DHT22;10651;47.552;7.606;2022-07-01T05:54:43;15.90;99.90
20985;DHT22;10651;47.552;7.606;2022-07-01T05:57:09;16.00;99.90
20985;DHT22;10651;47.552;7.606;2022-07-01T05:59:35;16.00;99.90
20985;DHT22;10651;47.552;7.606;2022-07-01T06:02:01;15.90;99.90
20985;DHT22;10651;47.552;7.606;2022-07-01T06:04:26;15.90;99.90
20985;DHT22;10651;47.552;7.606;2022-07-01T06:06:52;15.90;99.90
20985;DHT22;10651;47.552;7.606;2022-07-01T06:09:18;16.00;99.90
20985;DHT22;10651;47.552;7.606;2022-07-01T06:11:44;16.00;99.90
20985;DHT22;10651;47.552;7.606;2022-07-01T06:14:09;16.10;99.90
20985;DHT22;10651;47.552;7.606;2022-07-01T06:16:35;16.10;99.90
20985;DHT22;10651;47.552;7.606;2022-07-01T06:19:00;16.10;99.90
20985;DHT22;10651;47.552;7.606;2022-07-01T06:21:26;16.10;99.90
20985;DHT22;10651;47.552;7.606;2022-07-01T06:23:52;16.00;99.90
20985;DHT22;10651;47.552;7.606;2022-07-01T06:26:18;16.00;99.90
20985;DHT22;10651;47.552;7.606;2022-07-01T06:28:43;16.00;99.90
20985;DHT22;10651;47.552;7.606;2022-07-01T06:31:09;16.00;99.90
20985;DHT22;10651;47.552;7.606;2022-07-01T06:33:34;15.90;99.90
20985;DHT22;10651;47.552;7.606;2022-07-01T06:36:00;15.90;99.90
20985;DHT22;10651;47.552;7.606;2022-07-01T06:38:26;16.00;99.90
20985;DHT22;10651;47.552;7.606;2022-07-01T06:40:51;16.00;99.90
20985;DHT22;10651;47.552;7.606;2022-07-01T06:43:36;16.10;99.90
20985;DHT22;10651;47.552;7.606;2022-07-01T06:46:02;16.10;99.90
20985;DHT22;10651;47.552;7.606;2022-07-01T06:48:28;16.20;99.90
20985;DHT22;10651;47.552;7.606;2022-07-01T06:50:54;16.20;99.90
20985;DHT22;10651;47.552;7.606;2022-07-01T06:53:19;16.20;99.90
20985;DHT22;10651;47.552;7.606;2022-07-01T06:55:45;16.20;99.90
20985;DHT22;10651;47.552;7.606;2022-07-01T06:58:11;16.30;99.90
20985;DHT22;10651;47.552;7.606;2022-07-01T07:00:37;16.30;99.90
20985;DHT22;10651;47.552;7.606;2022-07-01T07:03:03;16.30;99.90
20985;DHT22;10651;47.552;7.606;2022-07-01T07:05:28;16.30;99.90
20985;DHT22;10651;47.552;7.606;2022-07-01T07:07:57;16.20;99.90
20985;DHT22;10651;47.552;7.606;2022-07-01T07:10:23;16.10;99.90
20985;DHT22;10651;47.552;7.606;2022-07-01T07:12:49;16.10;99.90
20985;DHT22;10651;47.552;7.606;2022-07-01T07:15:15;16.30;99.90
20985;DHT22;10651;47.552;7.606;2022-07-01T07:17:41;16.40;99.90
20985;DHT22;10651;47.552;7.606;2022-07-01T07:20:07;16.40;99.90
20985;DHT22;10651;47.552;7.606;2022-07-01T07:22:33;16.40;99.90
20985;DHT22;10651;47.552;7.606;2022-07-01T07:24:58;16.60;99.90
20985;DHT22;10651;47.552;7.606;2022-07-01T07:27:24;16.60;99.90
20985;DHT22;10651;47.552;7.606;2022-07-01T07:29:50;16.60;99.90
20985;DHT22;10651;47.552;7.606;2022-07-01T07:32:15;16.70;99.90
20985;DHT22;10651;47.552;7.606;2022-07-01T07:34:41;16.60;99.90
20985;DHT22;10651;47.552;7.606;2022-07-01T07:37:07;16.50;99.90
20985;DHT22;10651;47.552;7.606;2022-07-01T07:39:32;16.40;99.90
20985;DHT22;10651;47.552;7.606;2022-07-01T07:41:58;16.50;99.90
20985;DHT22;10651;47.552;7.606;2022-07-01T07:44:24;16.50;99.90
20985;DHT22;10651;47.552;7.606;2022-07-01T07:46:50;16.60;99.90
20985;DHT22;10651;47.552;7.606;2022-07-01T07:49:16;16.50;99.90
20985;DHT22;10651;47.552;7.606;2022-07-01T07:51:41;16.60;99.90
20985;DHT22;10651;47.552;7.606;2022-07-01T07:54:07;16.70;99.90
20985;DHT22;10651;47.552;7.606;2022-07-01T07:56:33;16.60;99.90
20985;DHT22;10651;47.552;7.606;2022-07-01T07:58:58;16.80;99.90
20985;DHT22;10651;47.552;7.606;2022-07-01T08:01:24;16.60;99.90
20985;DHT22;10651;47.552;7.606;2022-07-01T08:03:50;16.70;99.90
20985;DHT22;10651;47.552;7.606;2022-07-01T08:06:16;16.70;99.90
20985;DHT22;10651;47.552;7.606;2022-07-01T08:08:42;16.80;99.90
20985;DHT22;10651;47.552;7.606;2022-07-01T08:11:07;17.00;99.90
20985;DHT22;10651;47.552;7.606;2022-07-01T08:13:33;17.20;99.90
20985;DHT22;10651;47.552;7.606;2022-07-01T08:15:59;17.20;99.90
20985;DHT22;10651;47.552;7.606;2022-07-01T08:18:25;17.30;99.90
20985;DHT22;10651;47.552;7.606;2022-07-01T08:20:51;17.50;99.90
20985;DHT22;10651;47.552;7.606;2022-07-01T08:23:21;17.70;99.90
20985;DHT22;10651;47.552;7.606;2022-07-01T08:25:48;17.70;99.90
20985;DHT22;10651;47.552;7.606;2022-07-01T08:28:14;17.80;99.90
20985;DHT22;10651;47.552;7.606;2022-07-01T08:30:39;18.00;99.90
20985;DHT22;10651;47.552;7.606;2022-07-01T08:33:05;18.10;99.90
20985;DHT22;10651;47.552;7.606;2022-07-01T08:35:31;18.10;99.90
20985;DHT22;10651;47.552;7.606;2022-07-01T08:37:56;18.20;99.90
20985;DHT22;10651;47.552;7.606;2022-07-01T08:40:27;18.30;99.90
20985;DHT22;10651;47.552;7.606;2022-07-01T08:43:00;18.30;99.90
20985;DHT22;10651;47.552;7.606;2022-07-01T08:45:27;18.20;99.90
20985;DHT22;10651;47.552;7.606;2022-07-01T08:47:56;18.50;99.90
20985;DHT22;10651;47.552;7.606;2022-07-01T08:50:24;18.70;99.90
20985;DHT22;10651;47.552;7.606;2022-07-01T08:52:51;18.80;99.90
20985;DHT22;10651;47.552;7.606;2022-07-01T08:55:21;18.90;99.90
20985;DHT22;10651;47.552;7.606;2022-07-01T08:57:47;19.10;99.90
20985;DHT22;10651;47.552;7.606;2022-07-01T09:00:14;19.20;99.90
20985;DHT22;10651;47.552;7.606;2022-07-01T09:03:01;19.20;99.90
20985;DHT22;10651;47.552;7.606;2022-07-01T09:05:29;19.30;99.90
20985;DHT22;10651;47.552;7.606;2022-07-01T09:08:05;19.40;99.90
20985;DHT22;10651;47.552;7.606;2022-07-01T09:10:33;19.40;99.90
20985;DHT22;10651;47.552;7.606;2022-07-01T09:13:06;19.00;99.90
20985;DHT22;10651;47.552;7.606;2022-07-01T09:15:34;19.20;99.90
20985;DHT22;10651;47.552;7.606;2022-07-01T09:20:36;19.40;99.90
20985;DHT22;10651;47.552;7.606;2022-07-01T09:25:35;19.70;99.90
20985;DHT22;10651;47.552;7.606;2022-07-01T09:28:23;19.60;99.90
20985;DHT22;10651;47.552;7.606;2022-07-01T09:30:51;19.50;99.90
20985;DHT22;10651;47.552;7.606;2022-07-01T09:33:22;19.80;99.90
20985;DHT22;10651;47.552;7.606;2022-07-01T09:35:49;20.10;99.90
20985;DHT22;10651;47.552;7.606;2022-07-01T09:38:16;20.10;99.90
20985;DHT22;10651;47.552;7.606;2022-07-01T09:43:28;19.90;99.90
20985;DHT22;10651;47.552;7.606;2022-07-01T09:51:04;19.50;99.90
20985;DHT22;10651;47.552;7.606;2022-07-01T09:53:30;19.60;99.90
20985;DHT22;10651;47.552;7.606;2022-07-01T09:55:56;19.70;99.90
20985;DHT22;10651;47.552;7.606;2022-07-01T09:58:22;19.80;99.90
20985;DHT22;10651;47.552;7.606;2022-07-01T10:00:47;20.10;99.90
20985;DHT22;10651;47.552;7.606;2022-07-01T10:03:13;20.40;99.90
20985;DHT22;10651;47.552;7.606;2022-07-01T10:05:47;20.70;99.90
20985;DHT22;10651;47.552;7.606;2022-07-01T10:08:36;20.50;99.90
20985;DHT22;10651;47.552;7.606;2022-07-01T10:11:25;20.90;99.90
20985;DHT22;10651;47.552;7.606;2022-07-01T10:14:03;20.60;99.90
20985;DHT22;10651;47.552;7.606;2022-07-01T10:16:29;20.20;99.90
20985;DHT22;10651;47.552;7.606;2022-07-01T10:18:56;20.10;99.90
20985;DHT22;10651;47.552;7.606;2022-07-01T10:21:29;19.80;99.90
20985;DHT22;10651;47.552;7.606;2022-07-01T10:24:16;19.80;99.90
20985;DHT22;10651;47.552;7.606;2022-07-01T10:26:42;19.80;99.90
20985;DHT22;10651;47.552;7.606;2022-07-01T10:29:35;19.80;99.90
20985;DHT22;10651;47.552;7.606;2022-07-01T10:32:01;19.70;99.90
20985;DHT22;10651;47.552;7.606;2022-07-01T10:34:38;19.70;99.90
20985;DHT22;10651;47.552;7.606;2022-07-01T10:37:07;19.90;99.90
20985;DHT22;10651;47.552;7.606;2022-07-01T10:42:18;20.50;99.90
20985;DHT22;10651;47.552;7.606;2022-07-01T10:45:04;21.20;99.90
20985;DHT22;10651;47.552;7.606;2022-07-01T10:47:30;21.20;99.90
20985;DHT22;10651;47.552;7.606;2022-07-01T10:50:11;20.90;99.90
20985;DHT22;10651;47.552;7.606;2022-07-01T10:52:37;21.00;99.90
20985;DHT22;10651;47.552;7.606;2022-07-01T10:55:06;21.10;99.90
20985;DHT22;10651;47.552;7.606;2022-07-01T10:57:37;21.30;99.90
20985;DHT22;10651;47.552;7.606;2022-07-01T11:02:29;21.00;99.90
20985;DHT22;10651;47.552;7.606;2022-07-01T11:04:57;20.80;99.90
20985;DHT22;10651;47.552;7.606;2022-07-01T11:07:25;20.70;99.90
20985;DHT22;10651;47.552;7.606;2022-07-01T11:09:51;20.70;99.90
20985;DHT22;10651;47.552;7.606;2022-07-01T11:12:17;20.60;99.90
20985;DHT22;10651;47.552;7.606;2022-07-01T11:14:43;20.50;99.90
20985;DHT22;10651;47.552;7.606;2022-07-01T11:17:09;20.20;99.90
20985;DHT22;10651;47.552;7.606;2022-07-01T11:19:35;20.30;99.90
20985;DHT22;10651;47.552;7.606;2022-07-01T11:22:02;20.30;99.90
20985;DHT22;10651;47.552;7.606;2022-07-01T11:24:28;20.40;99.90
20985;DHT22;10651;47.552;7.606;2022-07-01T11:27:07;20.40;99.90
20985;DHT22;10651;47.552;7.606;2022-07-01T11:29:33;21.20;99.90
20985;DHT22;10651;47.552;7.606;2022-07-01T11:31:59;21.60;99.90
20985;DHT22;10651;47.552;7.606;2022-07-01T11:34:28;21.70;99.90
20985;DHT22;10651;47.552;7.606;2022-07-01T11:36:55;21.80;99.90
20985;DHT22;10651;47.552;7.606;2022-07-01T11:39:39;21.40;99.90
20985;DHT22;10651;47.552;7.606;2022-07-01T11:42:08;21.40;99.90
20985;DHT22;10651;47.552;7.606;2022-07-01T11:44:38;21.60;99.90
20985;DHT22;10651;47.552;7.606;2022-07-01T11:47:06;21.80;99.90
20985;DHT22;10651;47.552;7.606;2022-07-01T11:49:32;22.10;99.90
20985;DHT22;10651;47.552;7.606;2022-07-01T11:54:24;22.70;99.90
20985;DHT22;10651;47.552;7.606;2022-07-01T11:56:51;22.20;99.90
20985;DHT22;10651;47.552;7.606;2022-07-01T11:59:17;22.60;99.90
20985;DHT22;10651;47.552;7.606;2022-07-01T12:01:51;22.80;99.90
20985;DHT22;10651;47.552;7.606;2022-07-01T12:04:17;22.90;99.90
20985;DHT22;10651;47.552;7.606;2022-07-01T12:06:43;22.90;99.90
20985;DHT22;10651;47.552;7.606;2022-07-01T12:09:13;22.50;99.90
20985;DHT22;10651;47.552;7.606;2022-07-01T12:11:50;22.40;99.90
20985;DHT22;10651;47.552;7.606;2022-07-01T12:14:21;22.50;99.90
20985;DHT22;10651;47.552;7.606;2022-07-01T12:16:47;22.20;99.90
20985;DHT22;10651;47.552;7.606;2022-07-01T12:19:16;22.20;99.90
20985;DHT22;10651;47.552;7.606;2022-07-01T12:22:08;22.00;99.90
20985;DHT22;10651;47.552;7.606;2022-07-01T12:24:34;22.30;99.90
20985;DHT22;10651;47.552;7.606;2022-07-01T12:32:22;23.70;99.90
20985;DHT22;10651;47.552;7.606;2022-07-01T12:34:50;23.60;99.90
20985;DHT22;10651;47.552;7.606;2022-07-01T12:37:39;23.60;99.90
20985;DHT22;10651;47.552;7.606;2022-07-01T12:40:22;23.40;99.90
20985;DHT22;10651;47.552;7.606;2022-07-01T12:42:48;23.40;99.90
20985;DHT22;10651;47.552;7.606;2022-07-01T12:45:16;22.90;99.90
20985;DHT22;10651;47.552;7.606;2022-07-01T12:47:47;23.10;99.90
20985;DHT22;10651;47.552;7.606;2022-07-01T12:50:24;22.90;99.90
20985;DHT22;10651;47.552;7.606;2022-07-01T12:53:07;23.20;99.90
20985;DHT22;10651;47.552;7.606;2022-07-01T12:55:38;23.00;99.90
20985;DHT22;10651;47.552;7.606;2022-07-01T12:58:06;23.20;99.90
20985;DHT22;10651;47.552;7.606;2022-07-01T13:00:34;23.20;99.90
20985;DHT22;10651;47.552;7.606;2022-07-01T13:03:01;23.10;99.90
20985;DHT22;10651;47.552;7.606;2022-07-01T13:05:29;23.20;99.90
20985;DHT22;10651;47.552;7.606;2022-07-01T13:07:55;23.40;99.90
20985;DHT22;10651;47.552;7.606;2022-07-01T13:10:21;23.40;99.90
20985;DHT22;10651;47.552;7.606;2022-07-01T13:12:48;23.50;99.90
20985;DHT22;10651;47.552;7.606;2022-07-01T13:15:15;23.70;99.90
20985;DHT22;10651;47.552;7.606;2022-07-01T13:17:42;24.20;99.90
20985;DHT22;10651;47.552;7.606;2022-07-01T13:20:09;24.30;99.90
20985;DHT22;10651;47.552;7.606;2022-07-01T13:22:35;24.10;99.90
20985;DHT22;10651;47.552;7.606;2022-07-01T13:25:02;23.80;99.90
20985;DHT22;10651;47.552;7.606;2022-07-01T13:27:27;23.70;99.90
20985;DHT22;10651;47.552;7.606;2022-07-01T13:29:53;23.50;99.90
20985;DHT22;10651;47.552;7.606;2022-07-01T13:32:19;23.00;99.90
20985;DHT22;10651;47.552;7.606;2022-07-01T13:34:45;22.90;99.90
20985;DHT22;10651;47.552;7.606;2022-07-01T13:37:11;22.60;99.90
20985;DHT22;10651;47.552;7.606;2022-07-01T13:39:37;22.80;99.90
20985;DHT22;10651;47.552;7.606;2022-07-01T13:42:02;22.70;99.90
20985;DHT22;10651;47.552;7.606;2022-07-01T13:44:28;22.70;99.90
20985;DHT22;10651;47.552;7.606;2022-07-01T13:46:54;23.10;99.90
20985;DHT22;10651;47.552;7.606;2022-07-01T13:49:19;23.80;99.90
20985;DHT22;10651;47.552;7.606;2022-07-01T13:51:45;24.20;99.90
20985;DHT22;10651;47.552;7.606;2022-07-01T13:54:11;24.20;99.90
20985;DHT22;10651;47.552;7.606;2022-07-01T13:56:37;24.10;99.90
20985;DHT22;10651;47.552;7.606;2022-07-01T13:59:03;24.10;99.90
20985;DHT22;10651;47.552;7.606;2022-07-01T14:01:29;24.10;99.90
20985;DHT22;10651;47.552;7.606;2022-07-01T14:03:55;24.10;99.90
20985;DHT22;10651;47.552;7.606;2022-07-01T14:06:20;24.20;99.90
20985;DHT22;10651;47.552;7.606;2022-07-01T14:08:46;24.20;99.90
20985;DHT22;10651;47.552;7.606;2022-07-01T14:11:12;24.50;99.90
20985;DHT22;10651;47.552;7.606;2022-07-01T14:13:39;24.50;99.90
20985;DHT22;10651;47.552;7.606;2022-07-01T14:16:06;24.50;99.90
20985;DHT22;10651;47.552;7.606;2022-07-01T14:18:36;24.40;99.90
20985;DHT22;10651;47.552;7.606;2022-07-01T14:21:03;24.60;99.90
20985;DHT22;10651;47.552;7.606;2022-07-01T14:23:29;24.60;99.90
20985;DHT22;10651;47.552;7.606;2022-07-01T14:25:55;24.70;99.90
20985;DHT22;10651;47.552;7.606;2022-07-01T14:28:21;24.80;99.90
20985;DHT22;10651;47.552;7.606;2022-07-01T14:30:47;24.10;99.90
20985;DHT22;10651;47.552;7.606;2022-07-01T14:33:15;23.70;99.90
20985;DHT22;10651;47.552;7.606;2022-07-01T14:35:41;23.30;99.90
20985;DHT22;10651;47.552;7.606;2022-07-01T14:38:07;23.50;99.90
20985;DHT22;10651;47.552;7.606;2022-07-01T14:40:33;23.80;99.90
20985;DHT22;10651;47.552;7.606;2022-07-01T14:42:59;24.20;99.90
20985;DHT22;10651;47.552;7.606;2022-07-01T14:45:24;24.50;99.90
20985;DHT22;10651;47.552;7.606;2022-07-01T14:47:50;24.20;99.90
20985;DHT22;10651;47.552;7.606;2022-07-01T14:50:16;23.90;99.90
20985;DHT22;10651;47.552;7.606;2022-07-01T14:52:42;24.30;99.90
20985;DHT22;10651;47.552;7.606;2022-07-01T14:55:08;24.70;99.90
20985;DHT22;10651;47.552;7.606;2022-07-01T14:57:35;24.80;99.90
20985;DHT22;10651;47.552;7.606;2022-07-01T15:00:01;25.00;99.90
20985;DHT22;10651;47.552;7.606;2022-07-01T15:02:28;25.10;99.90
20985;DHT22;10651;47.552;7.606;2022-07-01T15:04:53;25.10;99.90
20985;DHT22;10651;47.552;7.606;2022-07-01T15:07:19;24.60;99.90
20985;DHT22;10651;47.552;7.606;2022-07-01T15:09:45;24.50;99.90
20985;DHT22;10651;47.552;7.606;2022-07-01T15:12:11;24.40;99.90
20985;DHT22;10651;47.552;7.606;2022-07-01T15:14:36;24.60;99.90
20985;DHT22;10651;47.552;7.606;2022-07-01T15:17:02;24.60;99.90
20985;DHT22;10651;47.552;7.606;2022-07-01T15:19:28;24.70;99.90
20985;DHT22;10651;47.552;7.606;2022-07-01T15:21:55;24.80;99.90
20985;DHT22;10651;47.552;7.606;2022-07-01T15:24:21;24.80;99.90
20985;DHT22;10651;47.552;7.606;2022-07-01T15:26:48;24.70;99.90
20985;DHT22;10651;47.552;7.606;2022-07-01T15:29:14;24.60;99.90
20985;DHT22;10651;47.552;7.606;2022-07-01T15:31:40;24.50;99.90
20985;DHT22;10651;47.552;7.606;2022-07-01T15:34:06;24.10;99.90
20985;DHT22;10651;47.552;7.606;2022-07-01T15:36:32;23.90;99.90
20985;DHT22;10651;47.552;7.606;2022-07-01T15:38:58;23.70;99.90
20985;DHT22;10651;47.552;7.606;2022-07-01T15:41:26;23.90;99.90
20985;DHT22;10651;47.552;7.606;2022-07-01T15:43:55;24.10;99.90
20985;DHT22;10651;47.552;7.606;2022-07-01T15:46:21;24.20;99.90
20985;DHT22;10651;47.552;7.606;2022-07-01T15:48:47;24.30;99.90
20985;DHT22;10651;47.552;7.606;2022-07-01T15:51:14;24.40;99.90
20985;DHT22;10651;47.552;7.606;2022-07-01T15:53:39;24.50;99.90
20985;DHT22;10651;47.552;7.606;2022-07-01T15:56:05;24.40;99.90
20985;DHT22;10651;47.552;7.606;2022-07-01T15:58:31;24.60;99.90